createdAt,value
2017-11-10T00:00:07.345Z,17.60
2017-11-10T00:02:34.838Z,16.30
2017-11-10T00:05:02.309Z,16.40
2017-11-10T00:07:29.799Z,16.70
2017-11-10T00:09:57.312Z,17.90
2017-11-10T00:12:24.772Z,16.43
2017-11-10T00:14:52.234Z,17.67
2017-11-10T00:17:23.275Z,15.60
2017-11-10T00:19:51.509Z,16.10
2017-11-10T00:22:19.048Z,15.23
2017-11-10T00:24:46.602Z,15.07
2017-11-10T00:27:14.035Z,14.17
2017-11-10T00:29:41.483Z,14.80
2017-11-10T00:32:09.710Z,14.97
2017-11-10T00:34:37.163Z,16.40
2017-11-10T00:37:04.636Z,16.00
2017-11-10T00:39:32.186Z,16.57
2017-11-10T00:41:59.621Z,15.93
2017-11-10T00:44:27.172Z,16.10
2017-11-10T00:46:54.724Z,16.60
2017-11-10T00:49:22.161Z,15.37
2017-11-10T00:51:50.370Z,15.33
2017-11-10T00:54:17.840Z,15.30
2017-11-10T00:56:45.468Z,15.10
2017-11-10T00:59:12.897Z,15.70
2017-11-10T01:01:41.214Z,15.70
2017-11-10T01:04:08.659Z,14.67
2017-11-10T01:06:36.132Z,16.07
2017-11-10T01:09:03.973Z,15.43
2017-11-10T01:11:31.430Z,15.83
2017-11-10T01:13:58.870Z,14.50
2017-11-10T01:16:26.379Z,16.33
2017-11-10T01:18:53.825Z,16.93
2017-11-10T01:21:21.275Z,15.70
2017-11-10T01:23:48.740Z,16.00
2017-11-10T01:26:16.291Z,15.10
2017-11-10T01:28:43.734Z,14.40
2017-11-10T01:31:11.311Z,16.57
2017-11-10T01:33:38.861Z,16.03
2017-11-10T01:36:06.419Z,16.13
2017-11-10T01:38:33.882Z,14.77
2017-11-10T01:41:01.334Z,15.07
2017-11-10T01:43:28.887Z,17.63
2017-11-10T01:45:56.334Z,15.20
2017-11-10T01:48:29.479Z,15.53
2017-11-10T01:50:57.697Z,15.47
2017-11-10T01:53:25.162Z,15.70
2017-11-10T01:55:52.618Z,14.30
2017-11-10T01:58:20.174Z,16.20
2017-11-10T02:00:47.626Z,16.07
2017-11-10T02:03:15.094Z,15.93
2017-11-10T02:05:42.726Z,16.17
2017-11-10T02:08:10.230Z,14.57
2017-11-10T02:10:37.757Z,15.93
2017-11-10T02:13:05.202Z,15.70
2017-11-10T02:15:32.657Z,15.30
2017-11-10T02:18:00.098Z,14.10
2017-11-10T02:20:27.555Z,15.40
2017-11-10T02:22:55.037Z,14.17
2017-11-10T02:25:22.506Z,15.10
2017-11-10T02:27:49.945Z,14.50
2017-11-10T02:30:17.517Z,14.70
2017-11-10T02:32:45.065Z,15.57
2017-11-10T02:35:12.505Z,15.73
2017-11-10T02:37:39.974Z,15.13
2017-11-10T02:40:07.414Z,15.03
2017-11-10T02:42:34.960Z,15.60
2017-11-10T02:45:02.458Z,15.60
2017-11-10T02:47:29.911Z,15.20
2017-11-10T02:49:58.274Z,16.33
2017-11-10T02:52:25.732Z,15.20
2017-11-10T02:54:53.175Z,15.13
2017-11-10T02:57:20.660Z,14.47
2017-11-10T02:59:48.107Z,14.63
2017-11-10T03:02:15.575Z,14.60
2017-11-10T03:04:43.111Z,14.73
2017-11-10T03:07:10.670Z,15.40
2017-11-10T03:09:38.109Z,14.70
2017-11-10T03:12:05.654Z,15.03
2017-11-10T03:14:33.087Z,13.70
2017-11-10T03:17:00.534Z,13.60
2017-11-10T03:19:28.741Z,14.43
2017-11-10T03:21:56.222Z,15.73
2017-11-10T03:24:23.676Z,14.97
2017-11-10T03:26:51.127Z,15.73
2017-11-10T03:29:18.599Z,14.50
2017-11-10T03:31:46.146Z,15.10
2017-11-10T03:34:13.590Z,14.30
2017-11-10T03:36:41.130Z,14.77
2017-11-10T03:39:08.564Z,15.40
2017-11-10T03:41:36.014Z,14.87
2017-11-10T03:44:03.462Z,13.67
2017-11-10T03:46:31.682Z,14.67
2017-11-10T03:48:59.153Z,14.73
2017-11-10T03:51:26.710Z,13.90
2017-11-10T03:53:54.288Z,13.00
2017-11-10T03:56:21.731Z,13.40
2017-11-10T03:58:49.278Z,14.00
2017-11-10T04:01:16.730Z,13.60
2017-11-10T04:03:44.190Z,13.73
2017-11-10T04:06:11.824Z,14.20
2017-11-10T04:08:39.254Z,13.40
2017-11-10T04:11:06.715Z,14.10
2017-11-10T04:13:34.292Z,13.90
2017-11-10T04:16:01.758Z,13.70
2017-11-10T04:18:29.221Z,12.97
2017-11-10T04:20:56.686Z,12.40
2017-11-10T04:23:24.133Z,15.07
2017-11-10T04:25:51.585Z,13.17
2017-11-10T04:28:19.027Z,13.50
2017-11-10T04:30:46.470Z,11.90
2017-11-10T04:33:13.921Z,12.23
2017-11-10T04:35:41.493Z,13.03
2017-11-10T04:38:08.954Z,12.47
2017-11-10T04:40:36.397Z,12.37
2017-11-10T04:43:03.852Z,11.77
2017-11-10T04:45:31.978Z,13.37
2017-11-10T04:47:59.436Z,11.43
2017-11-10T04:50:26.877Z,11.90
2017-11-10T04:52:54.329Z,10.63
2017-11-10T04:55:21.883Z,11.90
2017-11-10T04:57:49.438Z,13.07
2017-11-10T05:00:16.886Z,12.30
2017-11-10T05:02:44.462Z,11.87
2017-11-10T05:05:12.010Z,11.07
2017-11-10T05:07:39.643Z,12.27
2017-11-10T05:10:07.080Z,11.90
2017-11-10T05:12:34.532Z,11.80
2017-11-10T05:15:01.971Z,12.27
2017-11-10T05:17:30.182Z,11.00
2017-11-10T05:19:57.628Z,11.97
2017-11-10T05:22:25.118Z,10.83
2017-11-10T05:24:52.563Z,10.80
2017-11-10T05:27:20.073Z,10.40
2017-11-10T05:29:48.382Z,9.97
2017-11-10T05:32:15.866Z,11.00
2017-11-10T05:34:43.301Z,10.83
2017-11-10T05:37:10.748Z,10.43
2017-11-10T05:39:38.202Z,11.40
2017-11-10T05:42:05.659Z,10.80
2017-11-10T05:44:33.215Z,11.40
2017-11-10T05:47:00.658Z,10.90
2017-11-10T05:49:28.111Z,11.13
2017-11-10T05:51:55.565Z,12.03
2017-11-10T05:54:23.007Z,11.27
2017-11-10T05:56:51.222Z,11.00
2017-11-10T05:59:18.670Z,13.10
2017-11-10T06:01:46.145Z,11.10
2017-11-10T06:04:13.591Z,11.03
2017-11-10T06:06:41.040Z,11.40
2017-11-10T06:09:08.588Z,11.23
2017-11-10T06:11:36.035Z,10.90
2017-11-10T06:14:03.478Z,10.03
2017-11-10T06:16:30.934Z,11.20
2017-11-10T06:18:58.450Z,10.73
2017-11-10T06:21:25.902Z,11.20
2017-11-10T06:23:53.345Z,11.03
2017-11-10T06:26:20.911Z,9.83
2017-11-10T06:28:48.349Z,10.17
2017-11-10T06:31:15.798Z,11.17
2017-11-10T06:33:43.245Z,11.00
2017-11-10T06:36:10.689Z,11.50
2017-11-10T06:38:38.262Z,11.07
2017-11-10T06:41:05.752Z,13.27
2017-11-10T06:43:33.324Z,11.50
2017-11-10T06:46:00.761Z,12.53
2017-11-10T06:48:28.284Z,12.27
2017-11-10T06:50:55.740Z,11.83
2017-11-10T06:53:23.181Z,11.60
2017-11-10T06:55:50.622Z,12.33
2017-11-10T06:58:18.854Z,12.67
2017-11-10T07:00:46.382Z,11.10
2017-11-10T07:03:13.939Z,11.73
2017-11-10T07:05:41.370Z,11.60
2017-11-10T07:08:08.818Z,11.13
2017-11-10T07:10:37.035Z,13.07
2017-11-10T07:13:04.579Z,11.60
2017-11-10T07:15:32.021Z,12.50
2017-11-10T07:17:59.479Z,10.80
2017-11-10T07:20:26.940Z,10.80
2017-11-10T07:22:54.510Z,10.90
2017-11-10T07:25:21.937Z,12.17
2017-11-10T07:27:49.447Z,11.47
2017-11-10T07:30:16.906Z,11.97
2017-11-10T07:32:44.367Z,12.13
2017-11-10T07:35:11.810Z,12.70
2017-11-10T07:37:39.267Z,12.17
2017-11-10T07:40:06.710Z,13.40
2017-11-10T07:42:34.167Z,11.67
2017-11-10T07:45:01.602Z,12.23
2017-11-10T07:47:29.058Z,12.23
2017-11-10T07:49:56.502Z,12.57
2017-11-10T07:52:23.954Z,12.90
2017-11-10T07:54:51.398Z,13.27
2017-11-10T07:57:19.637Z,11.40
2017-11-10T07:59:47.081Z,12.60
2017-11-10T08:02:14.530Z,13.63
2017-11-10T08:04:41.976Z,12.53
2017-11-10T08:07:09.423Z,13.03
2017-11-10T08:09:36.873Z,13.47
2017-11-10T08:12:04.318Z,14.37
2017-11-10T08:14:31.765Z,10.97
2017-11-10T08:16:59.266Z,11.90
2017-11-10T08:19:26.827Z,12.90
2017-11-10T08:21:54.268Z,12.60
2017-11-10T08:24:21.745Z,12.23
2017-11-10T08:26:49.189Z,12.37
2017-11-10T08:29:16.724Z,13.10
2017-11-10T08:31:44.155Z,12.70
2017-11-10T08:34:11.607Z,14.50
2017-11-10T08:36:39.836Z,13.93
2017-11-10T08:39:07.295Z,13.07
2017-11-10T08:41:34.734Z,12.70
2017-11-10T08:44:02.274Z,18.40
2017-11-10T08:46:29.706Z,13.90
2017-11-10T08:48:57.145Z,15.53
2017-11-10T08:51:25.386Z,13.87
2017-11-10T08:53:52.827Z,14.10
2017-11-10T08:56:20.279Z,15.00
2017-11-10T08:58:47.726Z,14.83
2017-11-10T09:01:15.179Z,14.00
2017-11-10T09:03:42.667Z,13.90
2017-11-10T09:06:10.221Z,14.40
2017-11-10T09:08:37.666Z,16.00
2017-11-10T09:11:05.118Z,15.23
2017-11-10T09:13:32.558Z,14.70
2017-11-10T09:16:00.066Z,16.27
2017-11-10T09:18:27.511Z,13.57
2017-11-10T09:20:54.962Z,14.10
2017-11-10T09:23:22.402Z,14.90
2017-11-10T09:25:49.881Z,14.20
2017-11-10T09:28:23.032Z,14.10
2017-11-10T09:30:56.179Z,15.37
2017-11-10T09:33:30.211Z,15.93
2017-11-10T09:36:01.155Z,14.20
2017-11-10T09:38:43.482Z,15.47
2017-11-10T09:41:27.734Z,14.40
2017-11-10T09:47:12.134Z,14.50
2017-11-10T09:49:45.198Z,15.20
2017-11-10T09:55:39.058Z,14.17
2017-11-10T09:58:12.195Z,14.70
2017-11-10T10:00:42.520Z,14.20
2017-11-10T10:03:15.777Z,14.33
2017-11-10T10:05:49.089Z,15.30
2017-11-10T10:11:29.230Z,15.90
2017-11-10T10:14:14.522Z,14.93
2017-11-10T10:16:45.959Z,18.23
2017-11-10T10:19:14.863Z,15.13
2017-11-10T10:21:48.013Z,16.57
2017-11-10T10:24:15.458Z,16.77
2017-11-10T10:26:43.674Z,16.57
2017-11-10T10:29:11.130Z,14.30
2017-11-10T10:31:38.574Z,18.60
2017-11-10T10:34:06.051Z,20.13
2017-11-10T10:36:33.489Z,16.07
2017-11-10T10:39:00.942Z,16.10
2017-11-10T10:41:28.443Z,16.37
2017-11-10T10:43:55.978Z,15.37
2017-11-10T10:46:23.529Z,15.53
2017-11-10T10:48:50.987Z,15.70
2017-11-10T10:51:18.427Z,15.57
2017-11-10T10:53:45.890Z,14.53
2017-11-10T10:56:13.378Z,15.07
2017-11-10T10:58:40.833Z,15.90
2017-11-10T11:01:08.368Z,15.70
2017-11-10T11:03:35.944Z,14.70
2017-11-10T11:06:03.462Z,17.30
2017-11-10T11:08:30.938Z,13.83
2017-11-10T11:10:58.502Z,14.60
2017-11-10T11:13:25.938Z,16.10
2017-11-10T11:15:53.390Z,14.60
2017-11-10T11:18:20.867Z,15.37
2017-11-10T11:20:48.426Z,15.20
2017-11-10T11:23:15.952Z,14.50
2017-11-10T11:25:43.397Z,13.40
2017-11-10T11:28:10.847Z,15.87
2017-11-10T11:30:38.350Z,13.17
2017-11-10T11:33:05.901Z,13.73
2017-11-10T11:35:33.459Z,14.13
2017-11-10T11:38:00.901Z,13.77
2017-11-10T11:40:28.447Z,14.87
2017-11-10T11:42:55.878Z,14.93
2017-11-10T11:45:23.387Z,14.83
2017-11-10T11:47:50.826Z,14.30
2017-11-10T11:50:18.286Z,13.83
2017-11-10T11:52:45.721Z,14.10
2017-11-10T11:55:13.204Z,14.47
2017-11-10T11:57:40.645Z,14.10
2017-11-10T12:00:08.103Z,14.47
2017-11-10T12:02:35.575Z,16.07
2017-11-10T12:05:03.035Z,14.53
2017-11-10T12:07:30.636Z,15.57
2017-11-10T12:09:58.858Z,15.27
2017-11-10T12:12:26.314Z,13.00
2017-11-10T12:14:53.762Z,14.80
2017-11-10T12:17:21.215Z,15.97
2017-11-10T12:19:48.694Z,15.07
2017-11-10T12:22:16.252Z,14.80
2017-11-10T12:24:43.706Z,16.33
2017-11-10T12:27:11.161Z,13.80
2017-11-10T12:29:38.602Z,13.97
2017-11-10T12:32:06.049Z,15.30
2017-11-10T12:34:33.493Z,13.70
2017-11-10T12:37:00.976Z,15.07
2017-11-10T12:39:28.417Z,14.33
2017-11-10T12:41:55.870Z,14.97
2017-11-10T12:44:23.343Z,14.80
2017-11-10T12:46:50.922Z,14.37
2017-11-10T12:49:18.533Z,15.00
2017-11-10T12:51:46.015Z,14.90
2017-11-10T12:54:13.464Z,13.00
2017-11-10T12:56:40.941Z,14.50
2017-11-10T12:59:08.482Z,16.03
2017-11-10T13:01:35.936Z,12.87
2017-11-10T13:04:03.390Z,14.00
2017-11-10T13:06:30.834Z,13.23
2017-11-10T13:08:58.278Z,14.03
2017-11-10T13:11:25.722Z,14.00
2017-11-10T13:13:53.179Z,15.13
2017-11-10T13:16:20.622Z,14.90
2017-11-10T13:18:48.071Z,13.90
2017-11-10T13:21:16.280Z,13.40
2017-11-10T13:23:43.733Z,14.20
2017-11-10T13:26:11.179Z,13.90
2017-11-10T13:28:38.662Z,15.30
2017-11-10T13:31:06.118Z,14.73
2017-11-10T13:33:33.719Z,15.13
2017-11-10T13:36:01.931Z,15.33
2017-11-10T13:38:29.404Z,15.50
2017-11-10T13:40:56.837Z,13.97
2017-11-10T13:43:24.318Z,14.87
2017-11-10T13:45:51.771Z,14.50
2017-11-10T13:48:19.331Z,14.80
2017-11-10T13:50:46.783Z,13.43
2017-11-10T13:53:14.759Z,13.10
2017-11-10T13:55:42.374Z,12.93
2017-11-10T13:58:09.841Z,14.23
2017-11-10T14:00:37.282Z,13.83
2017-11-10T14:03:04.782Z,14.00
2017-11-10T14:05:32.343Z,14.23
2017-11-10T14:07:59.782Z,13.47
2017-11-10T14:10:27.238Z,14.00
2017-11-10T14:12:54.731Z,15.53
2017-11-10T14:15:22.176Z,13.60
2017-11-10T14:17:49.642Z,13.50
2017-11-10T14:20:17.086Z,15.40
2017-11-10T14:22:44.526Z,15.53
2017-11-10T14:25:11.977Z,15.03
2017-11-10T14:27:39.442Z,15.13
2017-11-10T14:30:06.890Z,13.10
2017-11-10T14:32:34.336Z,14.60
2017-11-10T14:35:01.803Z,13.73
2017-11-10T14:37:29.241Z,11.97
2017-11-10T14:39:56.715Z,13.90
2017-11-10T14:42:24.274Z,13.30
2017-11-10T14:44:51.711Z,13.33
2017-11-10T14:47:19.182Z,13.13
2017-11-10T14:49:46.622Z,13.43
2017-11-10T14:52:14.074Z,13.60
2017-11-10T14:54:41.529Z,15.23
2017-11-10T14:57:09.006Z,12.53
2017-11-10T14:59:36.470Z,12.70
2017-11-10T15:02:03.920Z,13.93
2017-11-10T15:04:31.367Z,13.70
2017-11-10T15:06:58.814Z,14.20
2017-11-10T15:09:26.291Z,13.30
2017-11-10T15:11:54.580Z,14.00
2017-11-10T15:14:22.123Z,14.50
2017-11-10T15:16:49.674Z,14.70
2017-11-10T15:19:17.118Z,14.07
2017-11-10T15:21:44.660Z,13.97
2017-11-10T15:24:12.145Z,13.77
2017-11-10T15:26:39.599Z,13.33
2017-11-10T15:29:07.034Z,14.10
2017-11-10T15:31:35.532Z,13.57
2017-11-10T15:34:02.970Z,14.40
2017-11-10T15:36:30.423Z,14.13
2017-11-10T15:38:57.898Z,15.10
2017-11-10T15:41:25.454Z,14.33
2017-11-10T15:43:52.910Z,14.70
2017-11-10T15:46:20.471Z,14.53
2017-11-10T15:48:47.932Z,15.27
2017-11-10T15:51:15.462Z,15.20
2017-11-10T15:53:42.920Z,14.83
2017-11-10T15:56:10.393Z,14.40
2017-11-10T15:58:37.842Z,12.50
2017-11-10T16:01:05.298Z,14.57
2017-11-10T16:03:32.747Z,14.43
2017-11-10T16:06:00.199Z,14.67
2017-11-10T16:08:27.646Z,16.80
2017-11-10T16:10:55.095Z,13.90
2017-11-10T16:13:22.539Z,13.20
2017-11-10T16:15:50.042Z,13.17
2017-11-10T16:18:17.494Z,14.90
2017-11-10T16:20:44.943Z,13.40
2017-11-10T16:23:12.397Z,11.90
2017-11-10T16:25:39.866Z,14.47
2017-11-10T16:28:07.350Z,13.13
2017-11-10T16:30:34.790Z,13.33
2017-11-10T16:33:02.255Z,13.60
2017-11-10T16:35:29.702Z,13.97
2017-11-10T16:37:57.155Z,12.93
2017-11-10T16:40:24.689Z,12.33
2017-11-10T16:42:52.147Z,11.80
2017-11-10T16:45:19.602Z,12.47
2017-11-10T16:47:47.053Z,12.03
2017-11-10T16:50:14.626Z,11.10
2017-11-10T16:52:42.078Z,12.00
2017-11-10T16:55:09.530Z,12.03
2017-11-10T16:57:37.160Z,12.00
2017-11-10T17:00:04.607Z,12.40
2017-11-10T17:02:32.038Z,11.50
2017-11-10T17:05:00.269Z,9.77
2017-11-10T17:07:27.715Z,10.20
2017-11-10T17:09:55.158Z,9.60
2017-11-10T17:12:22.638Z,9.20
2017-11-10T17:14:50.082Z,8.87
2017-11-10T17:17:17.522Z,10.77
2017-11-10T17:19:45.050Z,10.20
2017-11-10T17:22:13.248Z,8.13
2017-11-10T17:24:40.691Z,8.33
2017-11-10T17:27:08.195Z,9.30
2017-11-10T17:29:35.633Z,9.00
2017-11-10T17:32:03.098Z,8.07
2017-11-10T17:34:30.539Z,8.30
2017-11-10T17:36:58.002Z,7.70
2017-11-10T17:39:25.468Z,8.33
2017-11-10T17:41:52.905Z,8.33
2017-11-10T17:44:20.347Z,8.80
2017-11-10T17:46:47.834Z,8.07
2017-11-10T17:49:15.271Z,6.83
2017-11-10T17:51:42.747Z,7.97
2017-11-10T17:54:10.217Z,7.30
2017-11-10T17:56:37.659Z,6.53
2017-11-10T17:59:05.102Z,6.50
2017-11-10T18:01:33.591Z,6.23
2017-11-10T18:04:01.049Z,6.20
2017-11-10T18:06:28.599Z,5.83
2017-11-10T18:08:56.061Z,5.93
2017-11-10T18:11:23.621Z,6.07
2017-11-10T18:13:51.054Z,6.67
2017-11-10T18:16:18.518Z,6.20
2017-11-10T18:18:45.958Z,5.20
2017-11-10T18:21:13.433Z,6.03
2017-11-10T18:23:40.874Z,5.67
2017-11-10T18:26:08.319Z,5.27
2017-11-10T18:28:35.763Z,5.70
2017-11-10T18:31:03.204Z,5.23
2017-11-10T18:33:31.482Z,5.10
2017-11-10T18:35:58.997Z,5.93
2017-11-10T18:38:26.426Z,5.03
2017-11-10T18:40:53.874Z,4.70
2017-11-10T18:43:21.343Z,5.03
2017-11-10T18:45:48.807Z,4.10
2017-11-10T18:48:21.993Z,4.73
2017-11-10T18:50:49.467Z,5.53
2017-11-10T18:53:16.904Z,4.63
2017-11-10T18:55:50.066Z,4.37
2017-11-10T18:58:17.527Z,4.90
2017-11-10T19:00:45.013Z,5.07
2017-11-10T19:03:12.454Z,4.70
2017-11-10T19:05:40.737Z,4.70
2017-11-10T19:08:08.194Z,4.60
2017-11-10T19:10:35.630Z,4.60
2017-11-10T19:13:03.080Z,4.40
2017-11-10T19:15:30.527Z,4.50
2017-11-10T19:17:57.977Z,5.30
2017-11-10T19:20:25.412Z,4.80
2017-11-10T19:22:53.627Z,3.90
2017-11-10T19:25:21.113Z,3.77
2017-11-10T19:27:48.541Z,4.07
2017-11-10T19:30:16.010Z,3.50
2017-11-10T19:32:43.466Z,3.70
2017-11-10T19:35:10.920Z,3.30
2017-11-10T19:37:38.386Z,3.43
2017-11-10T19:40:05.930Z,4.33
2017-11-10T19:42:33.397Z,3.33
2017-11-10T19:45:00.854Z,3.37
2017-11-10T19:47:28.303Z,3.47
2017-11-10T19:49:55.746Z,3.60
2017-11-10T19:52:23.214Z,3.23
2017-11-10T19:54:50.786Z,4.30
2017-11-10T19:57:18.226Z,4.10
2017-11-10T19:59:45.672Z,3.50
2017-11-10T20:02:13.146Z,3.67
2017-11-10T20:04:40.601Z,4.30
2017-11-10T20:07:08.033Z,3.80
2017-11-10T20:09:35.475Z,3.40
2017-11-10T20:12:02.915Z,3.90
2017-11-10T20:14:30.377Z,4.50
2017-11-10T20:16:57.870Z,3.80
2017-11-10T20:19:25.421Z,4.23
2017-11-10T20:21:52.869Z,4.33
2017-11-10T20:24:20.314Z,3.80
2017-11-10T20:26:47.761Z,3.60
2017-11-10T20:29:15.214Z,4.00
2017-11-10T20:31:42.650Z,4.10
2017-11-10T20:34:10.862Z,3.83
2017-11-10T20:36:38.305Z,3.87
2017-11-10T20:39:05.741Z,3.40
2017-11-10T20:41:33.182Z,3.80
2017-11-10T20:44:01.393Z,3.10
2017-11-10T20:46:28.866Z,3.07
2017-11-10T20:48:56.323Z,3.30
2017-11-10T20:51:23.762Z,4.20
2017-11-10T20:53:51.211Z,4.77
2017-11-10T20:56:18.646Z,4.07
2017-11-10T20:58:46.089Z,4.80
2017-11-10T21:01:14.292Z,4.07
2017-11-10T21:03:41.735Z,3.87
2017-11-10T21:06:09.178Z,3.90
2017-11-10T21:08:37.394Z,3.40
2017-11-10T21:11:04.831Z,3.97
2017-11-10T21:13:32.298Z,3.93
2017-11-10T21:15:59.745Z,4.00
2017-11-10T21:18:27.198Z,3.50
2017-11-10T21:20:54.680Z,4.07
2017-11-10T21:23:22.121Z,4.50
2017-11-10T21:25:49.610Z,3.67
2017-11-10T21:28:17.123Z,3.93
2017-11-10T21:30:44.597Z,3.50
2017-11-10T21:33:12.163Z,3.90
2017-11-10T21:35:39.679Z,4.00
2017-11-10T21:38:07.201Z,4.17
2017-11-10T21:40:34.729Z,3.87
2017-11-10T21:43:02.192Z,3.70
2017-11-10T21:45:29.667Z,4.03
2017-11-10T21:47:57.138Z,3.60
2017-11-10T21:50:24.647Z,3.90
2017-11-10T21:52:52.156Z,3.20
2017-11-10T21:55:19.673Z,3.33
2017-11-10T21:57:47.139Z,4.67
2017-11-10T22:00:14.685Z,3.40
2017-11-10T22:02:42.143Z,3.73
2017-11-10T22:05:09.594Z,3.07
2017-11-10T22:07:37.065Z,3.63
2017-11-10T22:10:04.513Z,3.87
2017-11-10T22:12:32.066Z,3.33
2017-11-10T22:14:59.597Z,3.63
2017-11-10T22:17:27.040Z,3.47
2017-11-10T22:19:55.040Z,3.70
2017-11-10T22:22:22.499Z,2.90
2017-11-10T22:24:49.996Z,2.90
2017-11-10T22:27:17.510Z,3.87
2017-11-10T22:29:44.950Z,3.10
2017-11-10T22:32:12.387Z,2.93
2017-11-10T22:34:39.827Z,3.80
2017-11-10T22:37:08.076Z,3.33
2017-11-10T22:39:35.754Z,3.60
2017-11-10T22:42:04.039Z,3.57
2017-11-10T22:44:31.545Z,3.20
2017-11-10T22:46:58.997Z,3.33
2017-11-10T22:49:26.443Z,2.50
2017-11-10T22:51:53.911Z,2.90
2017-11-10T22:54:21.359Z,4.43
2017-11-10T22:56:48.794Z,3.30
2017-11-10T22:59:16.277Z,3.90
2017-11-10T23:01:43.735Z,3.50
2017-11-10T23:04:11.378Z,3.67
2017-11-10T23:06:38.835Z,3.63
2017-11-10T23:09:06.356Z,4.60
2017-11-10T23:11:34.660Z,4.20
2017-11-10T23:14:02.155Z,4.00
2017-11-10T23:16:29.656Z,3.90
2017-11-10T23:18:57.168Z,3.97
2017-11-10T23:21:24.765Z,4.80
2017-11-10T23:23:52.982Z,4.17
2017-11-10T23:26:20.475Z,4.57
2017-11-10T23:28:47.951Z,4.50
2017-11-10T23:31:15.478Z,4.80
2017-11-10T23:33:42.985Z,5.10
2017-11-10T23:36:10.462Z,5.80
2017-11-10T23:38:37.914Z,5.30
2017-11-10T23:41:05.376Z,5.23
2017-11-10T23:43:32.879Z,6.33
2017-11-10T23:46:01.117Z,5.57
2017-11-10T23:48:28.617Z,6.73
2017-11-10T23:50:56.819Z,6.40
2017-11-10T23:53:24.291Z,6.93
2017-11-10T23:55:51.727Z,7.87
2017-11-10T23:58:19.174Z,7.20
